createdAt,value
2023-05-06T00:01:28.571Z,99552.98
2023-05-06T00:04:01.529Z,99551.52
2023-05-06T00:06:37.594Z,99549.39
2023-05-06T00:09:10.825Z,99547.43
2023-05-06T00:11:43.565Z,99545.26
2023-05-06T00:14:16.714Z,99546.27
2023-05-06T00:16:52.665Z,99545.20
2023-05-06T00:19:33.505Z,99544.64
2023-05-06T00:22:06.736Z,99542.33
2023-05-06T00:24:39.330Z,99542.64
2023-05-06T00:27:12.111Z,99541.06
2023-05-06T00:29:45.118Z,99545.23
2023-05-06T00:32:17.934Z,99548.52
2023-05-06T00:34:54.015Z,99545.52
2023-05-06T00:37:26.953Z,99547.94
2023-05-06T00:39:59.809Z,99545.78
2023-05-06T00:42:32.304Z,99547.15
2023-05-06T00:45:16.354Z,99546.77
2023-05-06T00:47:49.161Z,99544.16
2023-05-06T00:50:28.635Z,99543.28
2023-05-06T00:53:03.609Z,99539.11
2023-05-06T00:55:36.554Z,99539.62
2023-05-06T00:58:09.883Z,99536.82
2023-05-06T01:00:43.054Z,99539.96
2023-05-06T01:03:16.010Z,99543.27
2023-05-06T01:06:05.672Z,99540.66
2023-05-06T01:08:49.001Z,99544.65
2023-05-06T01:11:31.095Z,99544.48
2023-05-06T01:14:16.481Z,99543.42
2023-05-06T01:16:53.802Z,99546.20
2023-05-06T01:19:41.980Z,99547.24
2023-05-06T01:22:16.650Z,99548.61
2023-05-06T01:24:49.673Z,99553.80
2023-05-06T01:27:36.686Z,99556.19
2023-05-06T01:30:12.554Z,99560.00
2023-05-06T01:32:54.513Z,99558.05
2023-05-06T01:35:36.240Z,99552.30
2023-05-06T01:38:19.103Z,99544.27
2023-05-06T01:40:56.951Z,99544.63
2023-05-06T01:43:38.568Z,99544.30
2023-05-06T01:46:32.308Z,99544.84
2023-05-06T01:49:27.152Z,99542.94
2023-05-06T01:52:22.343Z,99544.67
2023-05-06T01:55:15.992Z,99540.16
2023-05-06T01:57:48.682Z,99539.98
2023-05-06T02:00:41.667Z,99538.58
2023-05-06T02:03:19.316Z,99535.27
2023-05-06T02:05:52.406Z,99536.49
2023-05-06T02:08:26.086Z,99534.23
2023-05-06T02:10:58.409Z,99531.45
2023-05-06T02:13:31.307Z,99528.13
2023-05-06T02:16:05.469Z,99528.48
2023-05-06T02:18:38.107Z,99520.98
2023-05-06T02:21:11.091Z,99520.64
2023-05-06T02:23:44.029Z,99518.55
2023-05-06T02:26:16.626Z,99520.45
2023-05-06T02:28:51.201Z,99514.69
2023-05-06T02:31:23.884Z,99513.27
2023-05-06T02:33:56.694Z,99515.64
2023-05-06T02:36:29.149Z,99514.39
2023-05-06T02:39:01.681Z,99503.05
2023-05-06T02:41:35.590Z,99501.30
2023-05-06T02:44:11.704Z,99504.09
2023-05-06T02:46:44.781Z,99506.54
2023-05-06T02:49:18.043Z,99502.36
2023-05-06T02:51:52.067Z,99504.63
2023-05-06T02:54:29.121Z,99504.64
2023-05-06T02:57:01.682Z,99507.14
2023-05-06T02:59:34.188Z,99508.21
2023-05-06T03:02:10.926Z,99505.27
2023-05-06T03:04:47.388Z,99507.92
2023-05-06T03:07:41.507Z,99501.00
2023-05-06T03:10:34.832Z,99499.85
2023-05-06T03:13:28.066Z,99504.93
2023-05-06T03:16:00.744Z,99507.93
2023-05-06T03:18:56.396Z,99511.98
2023-05-06T03:21:49.407Z,99512.40
2023-05-06T03:24:44.280Z,99516.11
2023-05-06T03:27:27.385Z,99516.54
2023-05-06T03:30:20.574Z,99524.29
2023-05-06T03:33:13.718Z,99526.77
2023-05-06T03:36:07.070Z,99528.77
2023-05-06T03:38:59.905Z,99529.71
2023-05-06T03:41:34.217Z,99531.16
2023-05-06T03:44:27.933Z,99528.48
2023-05-06T03:47:01.078Z,99530.27
2023-05-06T03:49:37.537Z,99533.31
2023-05-06T03:52:10.849Z,99529.89
2023-05-06T03:55:03.367Z,99527.69
2023-05-06T03:57:55.797Z,99526.53
2023-05-06T04:00:49.134Z,99527.16
2023-05-06T04:03:24.375Z,99521.82
2023-05-06T04:06:00.658Z,99516.30
2023-05-06T04:08:33.774Z,99514.63
2023-05-06T04:11:28.059Z,99515.92
2023-05-06T04:14:02.825Z,99517.20
2023-05-06T04:16:57.960Z,99516.08
2023-05-06T04:19:30.683Z,99505.83
2023-05-06T04:22:14.471Z,99507.13
2023-05-06T04:25:09.140Z,99507.05
2023-05-06T04:27:44.739Z,99507.68
2023-05-06T04:30:28.413Z,99512.83
2023-05-06T04:33:04.131Z,99511.70
2023-05-06T04:35:40.549Z,99508.30
2023-05-06T04:38:16.361Z,99504.08
2023-05-06T04:40:49.783Z,99502.64
2023-05-06T04:43:22.878Z,99505.36
2023-05-06T04:45:58.949Z,99510.76
2023-05-06T04:48:33.690Z,99511.04
2023-05-06T04:51:07.643Z,99510.70
2023-05-06T04:53:42.031Z,99511.30
2023-05-06T04:56:17.231Z,99507.06
2023-05-06T04:58:51.050Z,99504.67
2023-05-06T05:01:24.471Z,99502.20
2023-05-06T05:04:00.133Z,99505.43
2023-05-06T05:06:34.498Z,99505.27
2023-05-06T05:09:06.810Z,99508.69
2023-05-06T05:11:41.191Z,99512.45
2023-05-06T05:14:14.130Z,99509.27
2023-05-06T05:16:46.709Z,99505.00
2023-05-06T05:19:21.422Z,99503.34
2023-05-06T05:21:54.972Z,99503.21
2023-05-06T05:24:28.357Z,99504.66
2023-05-06T05:27:02.700Z,99503.71
2023-05-06T05:29:36.041Z,99506.65
2023-05-06T05:32:13.413Z,99500.75
2023-05-06T05:34:46.770Z,99497.88
2023-05-06T05:37:22.768Z,99492.98
2023-05-06T05:39:55.995Z,99490.04
2023-05-06T05:42:31.059Z,99489.35
2023-05-06T05:45:03.702Z,99491.14
2023-05-06T05:47:36.337Z,99487.95
2023-05-06T05:50:11.967Z,99494.92
2023-05-06T05:52:44.496Z,99491.77
2023-05-06T05:55:18.460Z,99487.19
2023-05-06T05:57:51.640Z,99495.12
2023-05-06T06:00:25.398Z,99493.14
2023-05-06T06:03:00.971Z,99491.43
2023-05-06T06:05:33.602Z,99495.13
2023-05-06T06:08:09.032Z,99495.73
2023-05-06T06:10:42.084Z,99497.58
2023-05-06T06:13:18.974Z,99492.34
2023-05-06T06:15:52.346Z,99485.22
2023-05-06T06:18:27.438Z,99487.15
2023-05-06T06:21:00.241Z,99488.75
2023-05-06T06:23:32.854Z,99496.85
2023-05-06T06:26:06.907Z,99501.98
2023-05-06T06:28:40.182Z,99502.64
2023-05-06T06:31:13.830Z,99504.44
2023-05-06T06:33:46.597Z,99506.98
2023-05-06T06:36:19.154Z,99509.86
2023-05-06T06:38:51.883Z,99507.63
2023-05-06T06:41:24.630Z,99511.05
2023-05-06T06:43:59.950Z,99513.20
2023-05-06T06:46:35.155Z,99501.80
2023-05-06T06:49:10.630Z,99500.03
2023-05-06T06:51:58.610Z,99497.56
2023-05-06T06:54:32.229Z,99499.13
2023-05-06T06:57:15.369Z,99490.12
2023-05-06T06:59:52.592Z,99484.85
2023-05-06T07:02:28.039Z,99485.73
2023-05-06T07:05:12.549Z,99481.98
2023-05-06T07:07:45.492Z,99481.84
2023-05-06T07:10:18.280Z,99484.52
2023-05-06T07:13:02.124Z,99483.11
2023-05-06T07:15:46.123Z,99485.42
2023-05-06T07:18:18.959Z,99483.82
2023-05-06T07:20:53.286Z,99481.14
2023-05-06T07:23:46.143Z,99482.59
2023-05-06T07:26:22.230Z,99485.09
2023-05-06T07:28:56.465Z,99483.75
2023-05-06T07:31:29.135Z,99485.41
2023-05-06T07:34:01.951Z,99482.18
2023-05-06T07:36:40.668Z,99488.70
2023-05-06T07:39:18.407Z,99483.85
2023-05-06T07:41:53.925Z,99487.17
2023-05-06T07:44:27.221Z,99480.75
2023-05-06T07:47:00.136Z,99476.16
2023-05-06T07:49:34.211Z,99473.09
2023-05-06T07:52:18.409Z,99467.14
2023-05-06T07:54:51.085Z,99463.94
2023-05-06T07:57:26.574Z,99459.63
2023-05-06T08:00:02.153Z,99454.95
2023-05-06T08:02:47.032Z,99454.08
2023-05-06T08:05:23.143Z,99448.48
2023-05-06T08:07:55.988Z,99447.38
2023-05-06T08:10:40.956Z,99446.17
2023-05-06T08:13:16.279Z,99447.60
2023-05-06T08:15:49.890Z,99445.65
2023-05-06T08:18:23.328Z,99443.92
2023-05-06T08:20:58.940Z,99441.92
2023-05-06T08:23:32.989Z,99442.28
2023-05-06T08:26:09.324Z,99439.39
2023-05-06T08:28:42.298Z,99439.64
2023-05-06T08:31:37.795Z,99437.30
2023-05-06T08:34:10.576Z,99430.41
2023-05-06T08:36:43.230Z,99434.61
2023-05-06T08:39:18.928Z,99430.64
2023-05-06T08:41:55.750Z,99430.27
2023-05-06T08:44:28.325Z,99430.63
2023-05-06T08:47:01.528Z,99431.73
2023-05-06T08:49:34.297Z,99432.01
2023-05-06T08:52:10.278Z,99428.61
2023-05-06T08:54:44.145Z,99429.84
2023-05-06T08:57:18.943Z,99423.42
2023-05-06T08:59:52.176Z,99421.70
2023-05-06T09:02:25.729Z,99424.19
2023-05-06T09:04:58.927Z,99423.95
2023-05-06T09:07:31.533Z,99423.42
2023-05-06T09:10:09.303Z,99428.36
2023-05-06T09:12:42.337Z,99427.42
2023-05-06T09:15:16.423Z,99426.41
2023-05-06T09:17:49.355Z,99426.36
2023-05-06T09:20:21.946Z,99428.00
2023-05-06T09:22:54.802Z,99420.73
2023-05-06T09:25:28.869Z,99411.63
2023-05-06T09:28:09.148Z,99413.38
2023-05-06T09:30:44.139Z,99411.16
2023-05-06T09:33:36.903Z,99405.91
2023-05-06T09:36:13.689Z,99401.44
2023-05-06T09:39:09.174Z,99394.99
2023-05-06T09:41:42.057Z,99392.64
2023-05-06T09:44:35.106Z,99388.11
2023-05-06T09:47:33.840Z,99388.63
2023-05-06T09:50:27.168Z,99383.16
2023-05-06T09:53:03.761Z,99378.05
2023-05-06T09:55:37.693Z,99378.71
2023-05-06T09:58:13.313Z,99376.48
2023-05-06T10:00:58.387Z,99373.77
2023-05-06T10:03:34.444Z,99372.54
2023-05-06T10:06:13.138Z,99365.16
2023-05-06T10:08:52.541Z,99358.98
2023-05-06T10:11:26.340Z,99359.58
2023-05-06T10:14:09.302Z,99356.55
2023-05-06T10:16:57.289Z,99355.15
2023-05-06T10:19:46.326Z,99353.91
2023-05-06T10:22:35.430Z,99347.64
2023-05-06T10:25:19.456Z,99343.49
2023-05-06T10:27:56.436Z,99339.58
2023-05-06T10:30:30.040Z,99333.05
2023-05-06T10:33:07.202Z,99328.00
2023-05-06T10:35:49.288Z,99327.55
2023-05-06T10:38:28.027Z,99321.08
2023-05-06T10:41:04.388Z,99318.16
2023-05-06T10:43:41.638Z,99313.02
2023-05-06T10:46:16.184Z,99303.89
2023-05-06T10:49:20.970Z,99299.19
2023-05-06T10:52:18.361Z,99293.89
2023-05-06T10:54:52.971Z,99282.80
2023-05-06T10:57:27.550Z,99278.92
2023-05-06T11:00:00.252Z,99274.08
2023-05-06T11:02:33.375Z,99268.48
2023-05-06T11:05:08.223Z,99271.86
2023-05-06T11:07:41.198Z,99270.45
2023-05-06T11:10:16.783Z,99265.05
2023-05-06T11:12:50.619Z,99263.55
2023-05-06T11:15:41.563Z,99252.70
2023-05-06T11:18:44.832Z,99248.98
2023-05-06T11:21:43.655Z,99248.00
2023-05-06T11:24:23.693Z,99240.43
2023-05-06T11:26:56.711Z,99239.56
2023-05-06T11:29:29.440Z,99233.65
2023-05-06T11:32:02.109Z,99227.37
2023-05-06T11:34:38.540Z,99227.30
2023-05-06T11:37:11.323Z,99217.54
2023-05-06T11:39:50.857Z,99213.21
2023-05-06T11:42:29.250Z,99210.98
2023-05-06T11:45:03.754Z,99206.01
2023-05-06T11:47:36.268Z,99200.89
2023-05-06T11:50:10.849Z,99198.09
2023-05-06T11:52:43.432Z,99194.40
2023-05-06T11:55:16.169Z,99191.55
2023-05-06T11:57:48.552Z,99187.20
2023-05-06T12:00:22.084Z,99189.08
2023-05-06T12:02:58.280Z,99188.19
2023-05-06T12:05:32.879Z,99185.77
2023-05-06T12:08:13.326Z,99185.38
2023-05-06T12:10:53.524Z,99181.92
2023-05-06T12:13:26.103Z,99182.48
2023-05-06T12:16:00.481Z,99181.63
2023-05-06T12:18:33.537Z,99176.39
2023-05-06T12:21:08.969Z,99175.08
2023-05-06T12:23:53.605Z,99172.01
2023-05-06T12:26:27.349Z,99172.57
2023-05-06T12:29:11.067Z,99161.89
2023-05-06T12:31:44.714Z,99157.70
2023-05-06T12:34:18.603Z,99155.70
2023-05-06T12:36:51.336Z,99149.35
2023-05-06T12:39:23.681Z,99150.98
2023-05-06T12:41:56.320Z,99146.77
2023-05-06T12:44:37.306Z,99136.33
2023-05-06T12:47:19.748Z,99135.55
2023-05-06T12:49:54.119Z,99127.11
2023-05-06T12:52:30.218Z,99121.98
2023-05-06T12:55:03.456Z,99117.20
2023-05-06T12:57:37.235Z,99112.88
2023-05-06T13:00:13.505Z,99108.89
2023-05-06T13:02:47.935Z,99102.71
2023-05-06T13:05:21.076Z,99100.55
2023-05-06T13:07:54.407Z,99096.06
2023-05-06T13:10:32.938Z,99096.40
2023-05-06T13:13:05.837Z,99091.59
2023-05-06T13:15:38.974Z,99086.60
2023-05-06T13:18:12.075Z,99080.92
2023-05-06T13:20:44.740Z,99073.39
2023-05-06T13:23:17.974Z,99063.76
2023-05-06T13:26:03.307Z,99052.70
2023-05-06T13:28:39.410Z,99046.77
2023-05-06T13:31:12.235Z,99038.94
2023-05-06T13:33:44.785Z,99031.16
2023-05-06T13:36:19.889Z,99024.83
2023-05-06T13:38:52.302Z,99022.16
2023-05-06T13:41:25.971Z,99014.73
2023-05-06T13:44:00.878Z,99009.86
2023-05-06T13:46:33.268Z,99005.64
2023-05-06T13:49:06.428Z,99017.80
2023-05-06T13:51:39.284Z,99017.95
2023-05-06T13:54:12.236Z,99029.13
2023-05-06T13:56:44.977Z,99032.41
2023-05-06T13:59:18.280Z,99031.55
2023-05-06T14:01:55.816Z,99033.88
2023-05-06T14:04:28.690Z,99036.27
2023-05-06T14:07:01.476Z,99029.00
2023-05-06T14:09:33.975Z,99024.63
2023-05-06T14:12:07.143Z,99021.91
2023-05-06T14:14:42.009Z,99018.55
2023-05-06T14:17:14.883Z,99019.51
2023-05-06T14:19:50.761Z,99016.83
2023-05-06T14:22:23.181Z,99017.76
2023-05-06T14:24:57.526Z,99020.31
2023-05-06T14:27:30.145Z,99020.06
2023-05-06T14:30:02.893Z,99012.60
2023-05-06T14:32:35.721Z,99006.79
2023-05-06T14:35:11.349Z,99005.13
2023-05-06T14:37:44.173Z,98994.46
2023-05-06T14:40:18.201Z,98991.86
2023-05-06T14:42:50.978Z,98992.14
2023-05-06T14:45:23.385Z,98996.40
2023-05-06T14:47:58.319Z,98998.05
2023-05-06T14:50:31.125Z,98990.77
2023-05-06T14:53:04.039Z,98989.10
2023-05-06T14:55:37.533Z,98990.86
2023-05-06T14:58:13.099Z,98988.45
2023-05-06T15:00:48.122Z,98992.12
2023-05-06T15:03:23.897Z,98999.50
2023-05-06T15:06:09.459Z,98997.36
2023-05-06T15:08:47.097Z,99002.56
2023-05-06T15:11:22.192Z,99006.55
2023-05-06T15:13:55.607Z,99001.38
2023-05-06T15:16:31.709Z,99011.70
2023-05-06T15:19:04.403Z,99040.15
2023-05-06T15:21:37.371Z,99089.67
2023-05-06T15:24:30.113Z,99106.03
2023-05-06T15:27:03.005Z,99111.02
2023-05-06T15:29:36.620Z,99119.52
2023-05-06T15:32:12.547Z,99111.84
2023-05-06T15:34:45.077Z,99107.38
2023-05-06T15:37:19.369Z,99113.76
2023-05-06T15:39:52.034Z,99125.44
2023-05-06T15:42:24.913Z,99129.15
2023-05-06T15:45:00.880Z,99128.15
2023-05-06T15:47:33.675Z,99124.48
2023-05-06T15:52:44.618Z,99126.80
2023-05-06T15:55:17.355Z,99124.45
2023-05-06T15:57:50.055Z,99124.03
2023-05-06T16:00:23.254Z,99129.31
2023-05-06T16:02:56.478Z,99139.17
2023-05-06T16:05:29.438Z,99145.14
2023-05-06T16:08:04.388Z,99148.96
2023-05-06T16:10:36.886Z,99143.94
2023-05-06T16:13:12.256Z,99142.19
2023-05-06T16:15:45.647Z,99140.46
2023-05-06T16:18:20.358Z,99132.00
2023-05-06T16:20:52.708Z,99127.38
2023-05-06T16:23:26.508Z,99124.50
2023-05-06T16:26:01.097Z,99116.33
2023-05-06T16:28:33.928Z,99113.11
2023-05-06T16:31:07.171Z,99114.45
2023-05-06T16:33:42.651Z,99128.50
2023-05-06T16:36:15.360Z,99135.27
2023-05-06T16:39:09.473Z,99115.84
2023-05-06T16:41:44.428Z,99099.81
2023-05-06T16:44:19.507Z,99111.60
2023-05-06T16:46:51.919Z,99105.05
2023-05-06T16:49:28.147Z,99098.67
2023-05-06T16:52:01.770Z,99099.00
2023-05-06T16:54:34.580Z,99099.30
2023-05-06T16:57:07.076Z,99099.04
2023-05-06T16:59:43.145Z,99099.08
2023-05-06T17:02:15.615Z,99094.18
2023-05-06T17:04:55.132Z,99089.09
2023-05-06T17:07:27.620Z,99082.95
2023-05-06T17:10:02.610Z,99077.33
2023-05-06T17:12:35.767Z,99073.11
2023-05-06T17:15:19.499Z,99067.16
2023-05-06T17:17:52.420Z,99069.42
2023-05-06T17:20:25.436Z,99069.98
2023-05-06T17:23:08.443Z,99064.75
2023-05-06T17:25:41.340Z,99062.33
2023-05-06T17:28:14.005Z,99054.11
2023-05-06T17:30:46.948Z,99052.77
2023-05-06T17:33:19.920Z,99053.51
2023-05-06T17:35:52.414Z,99057.05
2023-05-06T17:38:24.906Z,99056.90
2023-05-06T17:41:08.086Z,99055.36
2023-05-06T17:43:41.353Z,99054.89
2023-05-06T17:46:14.272Z,99057.21
2023-05-06T17:48:48.363Z,99061.13
2023-05-06T17:51:24.303Z,99059.21
2023-05-06T17:54:00.447Z,99059.73
2023-05-06T17:56:33.836Z,99059.20
2023-05-06T17:59:11.819Z,99051.15
2023-05-06T18:01:44.865Z,99044.70
2023-05-06T18:04:17.600Z,99044.59
2023-05-06T18:06:50.153Z,99045.64
2023-05-06T18:09:22.689Z,99047.92
2023-05-06T18:11:57.702Z,99052.67
2023-05-06T18:14:30.778Z,99054.09
2023-05-06T18:17:03.312Z,99051.14
2023-05-06T18:19:36.040Z,99056.25
2023-05-06T18:22:08.960Z,99059.23
2023-05-06T18:24:42.216Z,99066.45
2023-05-06T18:27:14.706Z,99076.31
2023-05-06T18:29:48.827Z,99072.98
2023-05-06T18:32:21.529Z,99077.06
2023-05-06T18:34:56.130Z,99076.55
2023-05-06T18:37:32.628Z,99072.86
2023-05-06T18:40:06.091Z,99069.36
2023-05-06T18:42:38.808Z,99070.61
2023-05-06T18:45:13.399Z,99076.21
2023-05-06T18:47:48.090Z,99082.33
2023-05-06T18:50:23.809Z,99088.25
2023-05-06T18:52:56.981Z,99088.58
2023-05-06T18:55:30.186Z,99082.70
2023-05-06T18:58:05.705Z,99079.34
2023-05-06T19:00:38.473Z,99084.77
2023-05-06T19:03:11.320Z,99082.28
2023-05-06T19:05:43.796Z,99074.33
2023-05-06T19:08:17.362Z,99074.80
2023-05-06T19:10:52.958Z,99077.71
2023-05-06T19:13:26.055Z,99076.60
2023-05-06T19:15:58.971Z,99081.27
2023-05-06T19:18:32.310Z,99084.52
2023-05-06T19:21:06.415Z,99086.05
2023-05-06T19:23:39.182Z,99086.89
2023-05-06T19:26:13.787Z,99079.84
2023-05-06T19:28:47.788Z,99072.30
2023-05-06T19:31:20.354Z,99069.16
2023-05-06T19:33:53.079Z,99069.34
2023-05-06T19:36:26.009Z,99067.94
2023-05-06T19:39:05.653Z,99064.54
2023-05-06T19:41:40.702Z,99067.52
2023-05-06T19:44:15.222Z,99068.92
2023-05-06T19:46:48.104Z,99063.48
2023-05-06T19:49:25.227Z,99062.35
2023-05-06T19:51:58.525Z,99059.07
2023-05-06T19:54:31.013Z,99068.23
2023-05-06T19:57:03.740Z,99075.77
2023-05-06T19:59:36.556Z,99069.91
2023-05-06T20:02:11.633Z,99069.88
2023-05-06T20:04:44.445Z,99075.15
2023-05-06T20:07:17.429Z,99086.59
2023-05-06T20:09:56.528Z,99083.61
2023-05-06T20:12:30.315Z,99081.14
2023-05-06T20:15:03.778Z,99079.39
2023-05-06T20:17:36.476Z,99074.27
2023-05-06T20:20:11.785Z,99066.69
2023-05-06T20:22:47.913Z,99063.48
2023-05-06T20:25:20.785Z,99062.74
2023-05-06T20:27:53.270Z,99065.33
2023-05-06T20:30:26.315Z,99066.87
2023-05-06T20:33:04.325Z,99061.27
2023-05-06T20:35:38.597Z,99064.25
2023-05-06T20:38:11.649Z,99065.81
2023-05-06T20:40:48.491Z,99064.05
2023-05-06T20:43:21.005Z,99058.08
2023-05-06T20:45:53.757Z,99061.60
2023-05-06T20:48:27.816Z,99063.16
2023-05-06T20:51:00.818Z,99064.61
2023-05-06T20:53:33.988Z,99066.08
2023-05-06T20:56:22.188Z,99061.00
2023-05-06T20:58:55.648Z,99059.44
2023-05-06T21:01:28.561Z,99055.96
2023-05-06T21:04:03.229Z,99053.35
2023-05-06T21:06:35.502Z,99058.47
2023-05-06T21:09:10.154Z,99061.52
2023-05-06T21:11:42.719Z,99059.98
2023-05-06T21:14:15.659Z,99062.95
2023-05-06T21:16:48.641Z,99062.92
2023-05-06T21:19:21.221Z,99060.44
2023-05-06T21:21:56.912Z,99065.54
2023-05-06T21:24:29.505Z,99066.77
2023-05-06T21:27:01.928Z,99065.15
2023-05-06T21:29:37.644Z,99061.62
2023-05-06T21:32:10.526Z,99063.91
2023-05-06T21:34:44.878Z,99064.97
2023-05-06T21:37:17.648Z,99063.40
2023-05-06T21:39:54.377Z,99065.15
2023-05-06T21:42:27.238Z,99065.26
2023-05-06T21:45:03.870Z,99067.30
2023-05-06T21:47:42.901Z,99066.00
2023-05-06T21:50:16.065Z,99069.13
2023-05-06T21:52:48.351Z,99071.00
2023-05-06T21:55:22.772Z,99073.05
2023-05-06T21:58:06.083Z,99072.45
2023-05-06T22:00:41.329Z,99075.07
2023-05-06T22:03:18.354Z,99078.38
2023-05-06T22:05:52.761Z,99083.62
2023-05-06T22:08:26.253Z,99083.77
2023-05-06T22:10:59.220Z,99083.77
2023-05-06T22:13:32.256Z,99086.43
2023-05-06T22:16:05.398Z,99083.32
2023-05-06T22:18:41.468Z,99081.92
2023-05-06T22:21:14.606Z,99082.63
2023-05-06T22:23:50.755Z,99086.89
2023-05-06T22:26:24.372Z,99087.51
2023-05-06T22:29:01.631Z,99088.47
2023-05-06T22:31:36.970Z,99093.95
2023-05-06T22:34:10.155Z,99089.96
2023-05-06T22:36:45.674Z,99091.06
2023-05-06T22:39:18.334Z,99090.73
2023-05-06T22:41:53.311Z,99089.02
2023-05-06T22:44:26.097Z,99090.45
2023-05-06T22:46:59.050Z,99088.74
2023-05-06T22:49:32.930Z,99090.39
2023-05-06T22:52:05.878Z,99094.85
2023-05-06T22:54:38.909Z,99096.48
2023-05-06T22:57:11.715Z,99103.73
2023-05-06T22:59:44.013Z,99102.77
2023-05-06T23:02:16.832Z,99104.20
2023-05-06T23:04:49.678Z,99106.35
2023-05-06T23:07:23.133Z,99107.98
2023-05-06T23:10:01.255Z,99105.41
2023-05-06T23:12:43.903Z,99108.28
2023-05-06T23:15:16.673Z,99112.40
2023-05-06T23:17:50.140Z,99112.80
2023-05-06T23:20:25.439Z,99112.35
2023-05-06T23:22:58.036Z,99117.82
2023-05-06T23:25:30.907Z,99118.21
2023-05-06T23:28:06.292Z,99119.48
2023-05-06T23:30:39.079Z,99115.14
2023-05-06T23:33:14.639Z,99118.34
2023-05-06T23:35:47.359Z,99117.70
2023-05-06T23:38:20.321Z,99121.23
2023-05-06T23:40:52.789Z,99120.93
2023-05-06T23:43:25.289Z,99119.17
2023-05-06T23:45:57.820Z,99125.86
2023-05-06T23:48:32.763Z,99122.55
2023-05-06T23:51:15.526Z,99128.56
2023-05-06T23:54:09.179Z,99124.55
2023-05-06T23:56:51.039Z,99128.29
2023-05-06T23:59:37.015Z,99127.48
